Time;durP1;ratioP1;P1;durP2;ratioP2;P2;SDS_P1;SDS_P2;PMS_P1;PMS_P2;Temp;Humidity;BMP_temperature;BMP_pressure;BME280_temperature;BME280_humidity;BME280_pressure;Samples;Min_cycle;Max_cycle;Signal;HPM_P1;HPM_P2
2022/12/09 00:01:31;;;;;;;;;;;9.70;78.40;;;;;;5038989;28;93078;-41
2022/12/09 00:03:57;;;;;;;;;;;9.80;78.50;;;;;;5039442;27;93283;-41
2022/12/09 00:06:27;;;;;;;;;;;9.70;78.60;;;;;;5038689;28;92648;-41
2022/12/09 00:08:53;;;;;;;;;;;9.70;78.60;;;;;;5042243;28;92262;-41
2022/12/09 00:11:19;;;;;;;;;;;9.70;78.50;;;;;;5038445;28;92961;-41
2022/12/09 00:13:48;;;;;;;;;;;9.70;78.50;;;;;;5038596;28;92490;-41
2022/12/09 00:16:14;;;;;;;;;;;9.70;78.50;;;;;;5039621;28;92283;-41
2022/12/09 00:18:40;;;;;;;;;;;9.70;78.50;;;;;;5039136;28;92431;-41
2022/12/09 00:21:19;;;;;;;;;;;9.70;78.50;;;;;;5039135;28;92185;-41
2022/12/09 00:23:45;;;;;;;;;;;9.70;78.60;;;;;;5039263;27;91871;-41
2022/12/09 00:26:11;;;;;;;;;;;9.70;78.60;;;;;;5038125;28;93989;-41
2022/12/09 00:28:37;;;;;;;;;;;9.70;78.50;;;;;;5039202;28;92148;-41
2022/12/09 00:31:02;;;;;;;;;;;9.70;78.60;;;;;;5041894;28;92447;-41
2022/12/09 00:33:29;;;;;;;;;;;9.70;78.70;;;;;;5038573;28;92170;-41
2022/12/09 00:35:54;;;;;;;;;;;9.70;78.60;;;;;;5039019;28;92217;-41
2022/12/09 00:38:20;;;;;;;;;;;9.70;79.20;;;;;;5038662;28;92997;-41
2022/12/09 00:40:45;;;;;;;;;;;9.70;78.50;;;;;;5039004;28;92248;-41
2022/12/09 00:43:11;;;;;;;;;;;9.70;78.50;;;;;;5039655;28;92628;-41
2022/12/09 00:45:36;;;;;;;;;;;9.70;78.50;;;;;;5037876;28;93238;-41
2022/12/09 00:48:02;;;;;;;;;;;9.70;78.50;;;;;;5038801;28;92124;-41
2022/12/09 00:50:27;;;;;;;;;;;9.70;78.50;;;;;;5038457;28;93064;-41
2022/12/09 00:52:53;;;;;;;;;;;9.70;78.50;;;;;;5041429;28;93096;-41
2022/12/09 00:55:18;;;;;;;;;;;9.70;78.50;;;;;;5038580;27;93586;-41
2022/12/09 00:57:44;;;;;;;;;;;9.70;78.50;;;;;;5038394;28;92946;-41
2022/12/09 01:00:09;;;;;;;;;;;9.70;78.50;;;;;;5038856;28;92151;-41
2022/12/09 01:02:35;;;;;;;;;;;9.70;78.50;;;;;;5038704;28;92479;-41
2022/12/09 01:05:02;;;;;;;;;;;9.70;78.50;;;;;;5038429;28;92967;-41
2022/12/09 01:07:27;;;;;;;;;;;9.70;78.50;;;;;;5038965;28;91474;-41
2022/12/09 01:09:53;;;;;;;;;;;9.70;78.50;;;;;;5038925;28;91929;-41
2022/12/09 01:12:18;;;;;;;;;;;9.70;78.40;;;;;;5040860;28;93219;-41
2022/12/09 01:14:44;;;;;;;;;;;9.70;78.50;;;;;;5037981;28;92956;-41
2022/12/09 01:17:09;;;;;;;;;;;9.70;78.50;;;;;;5038055;28;93107;-41
2022/12/09 01:19:35;;;;;;;;;;;9.70;78.60;;;;;;5038599;28;92200;-41
2022/12/09 01:22:00;;;;;;;;;;;9.70;78.60;;;;;;5038402;27;93545;-41
2022/12/09 01:24:26;;;;;;;;;;;9.70;78.60;;;;;;5039936;28;94476;-41
2022/12/09 01:26:51;;;;;;;;;;;9.70;78.60;;;;;;5041930;28;92205;-41
2022/12/09 01:29:17;;;;;;;;;;;9.70;78.60;;;;;;5041895;28;92452;-41
2022/12/09 01:31:42;;;;;;;;;;;9.70;78.50;;;;;;5041717;28;92360;-41
2022/12/09 01:34:08;;;;;;;;;;;9.70;78.60;;;;;;5044488;28;92284;-41
2022/12/09 01:36:33;;;;;;;;;;;9.70;78.60;;;;;;5041437;28;93421;-41
2022/12/09 01:38:59;;;;;;;;;;;9.70;78.60;;;;;;5041133;28;93128;-41
2022/12/09 01:41:25;;;;;;;;;;;9.70;78.60;;;;;;5041747;27;93293;-41
2022/12/09 01:44:06;;;;;;;;;;;9.70;78.50;;;;;;5041228;28;92845;-41
2022/12/09 01:46:32;;;;;;;;;;;9.70;78.50;;;;;;5041040;28;92133;-41
2022/12/09 01:48:57;;;;;;;;;;;9.70;78.50;;;;;;5041471;28;92448;-41
2022/12/09 01:51:23;;;;;;;;;;;9.70;78.50;;;;;;5041180;28;92324;-41
2022/12/09 01:53:49;;;;;;;;;;;9.70;78.30;;;;;;5041419;28;92118;-41
2022/12/09 01:56:23;;;;;;;;;;;9.70;78.40;;;;;;5044628;28;92391;-41
2022/12/09 01:58:51;;;;;;;;;;;9.70;78.40;;;;;;5041679;28;92168;-41
2022/12/09 02:01:16;;;;;;;;;;;9.70;78.70;;;;;;5041053;27;92478;-41
2022/12/09 02:03:42;;;;;;;;;;;9.70;78.50;;;;;;5039809;28;95358;-41
2022/12/09 02:06:07;;;;;;;;;;;9.70;78.50;;;;;;5041584;28;92167;-41
2022/12/09 02:08:33;;;;;;;;;;;9.70;78.50;;;;;;5041529;27;92854;-41
2022/12/09 02:11:17;;;;;;;;;;;9.70;78.50;;;;;;5040682;28;93443;-41
2022/12/09 02:14:01;;;;;;;;;;;9.70;78.50;;;;;;5041210;27;92137;-41
2022/12/09 02:16:29;;;;;;;;;;;9.70;78.50;;;;;;5040767;27;93764;-41
2022/12/09 02:19:13;;;;;;;;;;;9.70;78.50;;;;;;5043607;28;92980;-41
2022/12/09 02:21:47;;;;;;;;;;;9.70;78.50;;;;;;5041758;27;92456;-41
2022/12/09 02:24:22;;;;;;;;;;;9.70;79.20;;;;;;5040583;28;93191;-41
2022/12/09 02:26:58;;;;;;;;;;;9.70;78.60;;;;;;5041015;28;92161;-41
2022/12/09 02:29:42;;;;;;;;;;;9.70;78.70;;;;;;5040410;27;93099;-41
2022/12/09 02:32:31;;;;;;;;;;;9.70;78.60;;;;;;5040702;28;93495;-41
2022/12/09 02:34:59;;;;;;;;;;;9.70;78.70;;;;;;5040200;28;92410;-41
2022/12/09 02:37:29;;;;;;;;;;;9.70;78.70;;;;;;5040716;28;92417;-41
2022/12/09 02:39:54;;;;;;;;;;;9.70;78.80;;;;;;5039946;28;93231;-41
2022/12/09 02:42:21;;;;;;;;;;;9.70;78.70;;;;;;5044056;28;92186;-41
2022/12/09 02:44:48;;;;;;;;;;;9.70;78.70;;;;;;5039433;28;93126;-41
2022/12/09 02:47:15;;;;;;;;;;;9.60;78.60;;;;;;5041083;28;91304;-41
2022/12/09 02:49:41;;;;;;;;;;;9.60;78.70;;;;;;5040380;28;93286;-41
2022/12/09 02:52:07;;;;;;;;;;;9.70;78.70;;;;;;5040059;28;93073;-41
2022/12/09 02:54:34;;;;;;;;;;;9.60;78.60;;;;;;5039877;28;92882;-41
2022/12/09 02:57:03;;;;;;;;;;;9.70;78.60;;;;;;5040289;28;93154;-41
2022/12/09 02:59:29;;;;;;;;;;;9.60;78.60;;;;;;5040001;28;92167;-41
2022/12/09 03:02:03;;;;;;;;;;;9.60;78.60;;;;;;5040206;28;92183;-41
2022/12/09 03:04:30;;;;;;;;;;;9.70;78.60;;;;;;5043322;28;93383;-41
2022/12/09 03:07:03;;;;;;;;;;;9.70;78.50;;;;;;5040338;28;92220;-41
2022/12/09 03:09:32;;;;;;;;;;;9.70;78.40;;;;;;5040526;28;92480;-41
2022/12/09 03:12:00;;;;;;;;;;;9.60;78.50;;;;;;5040040;28;92370;-41
2022/12/09 03:14:27;;;;;;;;;;;9.70;78.50;;;;;;5039801;28;92087;-41
2022/12/09 03:17:03;;;;;;;;;;;9.60;78.50;;;;;;5040184;27;92334;-41
2022/12/09 03:19:28;;;;;;;;;;;9.60;78.40;;;;;;5038933;28;94068;-41
2022/12/09 03:21:59;;;;;;;;;;;9.70;78.40;;;;;;5040307;28;92233;-41
2022/12/09 03:24:31;;;;;;;;;;;9.60;78.40;;;;;;5042640;28;92369;-41
2022/12/09 03:26:58;;;;;;;;;;;9.70;78.40;;;;;;5039826;28;92107;-41
2022/12/09 03:29:25;;;;;;;;;;;9.70;78.40;;;;;;5040108;28;92403;-41
2022/12/09 03:31:53;;;;;;;;;;;9.70;78.30;;;;;;5039352;28;93256;-41
2022/12/09 03:34:22;;;;;;;;;;;9.70;78.30;;;;;;5039637;28;92132;-41
2022/12/09 03:36:49;;;;;;;;;;;9.70;78.30;;;;;;5040505;28;92428;-41
2022/12/09 03:39:17;;;;;;;;;;;9.70;78.40;;;;;;5039233;28;93056;-41
2022/12/09 03:41:45;;;;;;;;;;;9.70;78.30;;;;;;5039816;28;92105;-41
2022/12/09 03:44:12;;;;;;;;;;;9.70;78.40;;;;;;5038878;27;94054;-41
2022/12/09 03:46:38;;;;;;;;;;;9.70;78.40;;;;;;5041952;28;92848;-41
2022/12/09 03:49:03;;;;;;;;;;;9.60;78.50;;;;;;5039803;27;92406;-41
2022/12/09 03:51:32;;;;;;;;;;;9.60;78.40;;;;;;5039145;28;92845;-41
2022/12/09 03:54:16;;;;;;;;;;;9.60;78.40;;;;;;5039430;28;92153;-41
2022/12/09 03:56:44;;;;;;;;;;;9.60;78.40;;;;;;5039666;27;92323;-41
2022/12/09 03:59:11;;;;;;;;;;;9.60;78.40;;;;;;5038675;28;94710;-41
2022/12/09 04:01:37;;;;;;;;;;;9.70;78.50;;;;;;5040147;28;91421;-41
2022/12/09 04:04:03;;;;;;;;;;;9.60;78.40;;;;;;5039750;28;92424;-41
2022/12/09 04:06:28;;;;;;;;;;;9.70;78.30;;;;;;5039052;28;92222;-41
2022/12/09 04:08:54;;;;;;;;;;;9.60;78.20;;;;;;5041866;28;93112;-41
2022/12/09 04:11:19;;;;;;;;;;;9.70;78.30;;;;;;5038689;28;94702;-41
2022/12/09 04:13:45;;;;;;;;;;;9.60;78.20;;;;;;5039231;28;92074;-41
2022/12/09 04:16:10;;;;;;;;;;;9.60;78.20;;;;;;5039454;28;92345;-41
2022/12/09 04:18:36;;;;;;;;;;;9.60;78.30;;;;;;5038721;28;93151;-41
2022/12/09 04:21:06;;;;;;;;;;;9.60;78.30;;;;;;5039211;28;92005;-41
2022/12/09 04:23:32;;;;;;;;;;;9.60;78.30;;;;;;5039174;27;92088;-41
2022/12/09 04:25:57;;;;;;;;;;;9.70;78.30;;;;;;5039185;28;92230;-41
2022/12/09 04:28:23;;;;;;;;;;;9.70;78.20;;;;;;5039366;28;92176;-41
2022/12/09 04:30:48;;;;;;;;;;;9.70;78.20;;;;;;5041750;27;92260;-41
2022/12/09 04:33:14;;;;;;;;;;;9.70;78.10;;;;;;5037987;28;92986;-41
2022/12/09 04:35:40;;;;;;;;;;;9.60;78.20;;;;;;5039120;27;93230;-41
2022/12/09 04:38:05;;;;;;;;;;;9.60;78.30;;;;;;5038347;28;93029;-41
2022/12/09 04:40:31;;;;;;;;;;;9.60;78.40;;;;;;5039139;28;92118;-41
2022/12/09 04:42:57;;;;;;;;;;;9.60;78.40;;;;;;5038913;28;92363;-41
2022/12/09 04:45:22;;;;;;;;;;;9.60;78.30;;;;;;5037844;28;92988;-40
2022/12/09 04:47:48;;;;;;;;;;;9.60;78.20;;;;;;5038917;28;92020;-41
2022/12/09 04:50:13;;;;;;;;;;;9.60;78.20;;;;;;5039412;28;92399;-41
2022/12/09 04:52:39;;;;;;;;;;;9.70;78.20;;;;;;5040728;28;94425;-41
2022/12/09 04:55:05;;;;;;;;;;;9.60;78.10;;;;;;5038842;27;92199;-41
2022/12/09 04:57:30;;;;;;;;;;;9.60;78.10;;;;;;5037329;28;95430;-41
2022/12/09 04:59:56;;;;;;;;;;;9.60;78.10;;;;;;5042109;28;92243;-41
2022/12/09 05:02:21;;;;;;;;;;;9.60;78.20;;;;;;5042259;27;94110;-41
2022/12/09 05:04:47;;;;;;;;;;;9.60;78.20;;;;;;5041717;28;93083;-41
2022/12/09 05:07:13;;;;;;;;;;;9.60;78.20;;;;;;5042249;28;92103;-41
2022/12/09 05:09:38;;;;;;;;;;;9.60;78.10;;;;;;5041950;27;93747;-41
2022/12/09 05:12:04;;;;;;;;;;;9.70;78.10;;;;;;5041641;28;92921;-41
2022/12/09 05:14:30;;;;;;;;;;;9.60;78.10;;;;;;5045496;28;91326;-41
2022/12/09 05:16:55;;;;;;;;;;;9.60;78.10;;;;;;5041780;28;92116;-41
2022/12/09 05:19:21;;;;;;;;;;;9.60;78.10;;;;;;5042128;28;92151;-41
2022/12/09 05:21:46;;;;;;;;;;;9.60;78.20;;;;;;5041470;28;92963;-41
2022/12/09 05:24:12;;;;;;;;;;;9.60;78.10;;;;;;5041339;28;93151;-41
2022/12/09 05:26:37;;;;;;;;;;;9.60;78.10;;;;;;5041871;28;92181;-41
2022/12/09 05:29:03;;;;;;;;;;;9.60;78.10;;;;;;5042100;27;92237;-41
2022/12/09 05:31:29;;;;;;;;;;;9.60;78.10;;;;;;5041403;28;92779;-41
2022/12/09 05:33:54;;;;;;;;;;;9.60;78.20;;;;;;5044681;28;92157;-41
2022/12/09 05:36:26;;;;;;;;;;;9.60;78.10;;;;;;5041370;28;93288;-41
2022/12/09 05:38:52;;;;;;;;;;;9.60;78.10;;;;;;5042163;28;91391;-41
2022/12/09 05:41:18;;;;;;;;;;;9.60;78.20;;;;;;5041678;27;93153;-41
2022/12/09 05:43:43;;;;;;;;;;;9.60;78.10;;;;;;5041031;28;92616;-41
2022/12/09 05:46:09;;;;;;;;;;;9.60;78.10;;;;;;5040811;28;93114;-41
2022/12/09 05:48:35;;;;;;;;;;;9.60;78.10;;;;;;5041938;28;93384;-41
2022/12/09 05:51:05;;;;;;;;;;;9.60;78.20;;;;;;5040919;28;93162;-41
2022/12/09 05:53:30;;;;;;;;;;;9.60;78.20;;;;;;5041334;28;92151;-41
2022/12/09 05:55:56;;;;;;;;;;;9.60;78.20;;;;;;5044107;27;92317;-41
2022/12/09 05:58:21;;;;;;;;;;;9.60;78.20;;;;;;5041514;28;92410;-41
2022/12/09 06:00:47;;;;;;;;;;;9.60;78.20;;;;;;5040956;27;94048;-41
2022/12/09 06:03:13;;;;;;;;;;;9.60;78.30;;;;;;5041487;28;92321;-41
2022/12/09 06:05:38;;;;;;;;;;;9.60;78.30;;;;;;5041290;28;92173;-41
2022/12/09 06:08:04;;;;;;;;;;;9.60;78.30;;;;;;5041304;27;92446;-41
2022/12/09 06:10:30;;;;;;;;;;;9.60;78.30;;;;;;5039128;27;93994;-41
2022/12/09 06:12:56;;;;;;;;;;;9.60;78.40;;;;;;5041151;28;92511;-41
2022/12/09 06:15:22;;;;;;;;;;;9.60;78.40;;;;;;5041165;27;93897;-41
2022/12/09 06:17:47;;;;;;;;;;;9.60;78.40;;;;;;5043593;28;93040;-41
2022/12/09 06:20:13;;;;;;;;;;;9.50;78.30;;;;;;5041309;28;92064;-41
2022/12/09 06:22:39;;;;;;;;;;;9.60;78.30;;;;;;5040378;28;94363;-41
2022/12/09 06:25:04;;;;;;;;;;;9.60;78.30;;;;;;5040741;28;92190;-41
2022/12/09 06:27:30;;;;;;;;;;;9.50;78.30;;;;;;5041748;27;92383;-41
2022/12/09 06:29:55;;;;;;;;;;;9.60;78.30;;;;;;5040471;28;92278;-41
2022/12/09 06:32:21;;;;;;;;;;;9.60;78.30;;;;;;5041149;28;92196;-41
2022/12/09 06:34:46;;;;;;;;;;;9.60;78.30;;;;;;5040191;27;93564;-41
2022/12/09 06:37:13;;;;;;;;;;;9.60;78.30;;;;;;5040121;28;93915;-41
2022/12/09 06:39:39;;;;;;;;;;;9.60;78.30;;;;;;5043937;28;92276;-41
2022/12/09 06:42:04;;;;;;;;;;;9.60;78.30;;;;;;5040384;28;93235;-41
2022/12/09 06:44:30;;;;;;;;;;;9.60;78.30;;;;;;5040967;28;92189;-41
2022/12/09 06:46:55;;;;;;;;;;;9.60;78.30;;;;;;5040628;27;93695;-41
2022/12/09 06:49:21;;;;;;;;;;;9.60;78.30;;;;;;5040179;28;92456;-41
2022/12/09 06:51:46;;;;;;;;;;;9.50;78.20;;;;;;5041094;28;91627;-41
2022/12/09 06:54:12;;;;;;;;;;;9.60;78.30;;;;;;5040516;28;91943;-41
2022/12/09 06:56:37;;;;;;;;;;;9.60;78.30;;;;;;5040045;28;93087;-41
2022/12/09 06:59:07;;;;;;;;;;;9.60;78.30;;;;;;5039986;28;93187;-41
2022/12/09 07:01:32;;;;;;;;;;;9.60;78.30;;;;;;5043129;27;93264;-41
2022/12/09 07:03:58;;;;;;;;;;;9.60;78.30;;;;;;5040542;28;92074;-41
2022/12/09 07:06:23;;;;;;;;;;;9.60;78.20;;;;;;5040331;28;92767;-41
2022/12/09 07:08:49;;;;;;;;;;;9.60;78.20;;;;;;5039852;28;92983;-41
2022/12/09 07:11:14;;;;;;;;;;;9.60;78.20;;;;;;5039947;28;91995;-41
2022/12/09 07:13:40;;;;;;;;;;;9.60;78.10;;;;;;5040437;28;92343;-41
2022/12/09 07:16:05;;;;;;;;;;;9.60;78.10;;;;;;5040324;28;92374;-41
2022/12/09 07:18:31;;;;;;;;;;;9.60;78.10;;;;;;5040378;28;92197;-41
2022/12/09 07:20:56;;;;;;;;;;;9.60;78.10;;;;;;5042356;28;92444;-41
2022/12/09 07:23:22;;;;;;;;;;;9.60;78.20;;;;;;5039213;28;93075;-41
2022/12/09 07:25:56;;;;;;;;;;;9.60;78.20;;;;;;5040108;28;92562;-41
2022/12/09 07:28:22;;;;;;;;;;;9.60;78.20;;;;;;5039538;28;92964;-41
2022/12/09 07:30:47;;;;;;;;;;;9.60;78.20;;;;;;5039876;28;92208;-41
2022/12/09 07:33:13;;;;;;;;;;;9.60;78.20;;;;;;5039627;28;92229;-41
2022/12/09 07:35:38;;;;;;;;;;;9.60;78.10;;;;;;5039243;28;93030;-41
2022/12/09 07:38:04;;;;;;;;;;;9.60;78.10;;;;;;5039600;28;92145;-41
2022/12/09 07:40:29;;;;;;;;;;;9.60;78.10;;;;;;5040095;27;93730;-41
2022/12/09 07:42:55;;;;;;;;;;;9.60;78.00;;;;;;5042523;28;93204;-41
2022/12/09 07:45:21;;;;;;;;;;;9.60;78.00;;;;;;5039332;28;92171;-41
2022/12/09 07:47:46;;;;;;;;;;;9.60;78.00;;;;;;5038256;28;95279;-41
2022/12/09 07:50:12;;;;;;;;;;;9.60;78.10;;;;;;5039541;28;92160;-41
2022/12/09 07:52:37;;;;;;;;;;;9.60;78.00;;;;;;5039513;27;93949;-41
2022/12/09 07:55:03;;;;;;;;;;;9.60;78.00;;;;;;5039143;28;93102;-41
2022/12/09 07:57:28;;;;;;;;;;;9.60;78.00;;;;;;5039309;28;92285;-41
2022/12/09 07:59:55;;;;;;;;;;;9.60;78.00;;;;;;5039605;28;92187;-41
2022/12/09 08:02:21;;;;;;;;;;;9.60;78.00;;;;;;5038900;28;93060;-41
2022/12/09 08:04:46;;;;;;;;;;;9.60;78.00;;;;;;5043134;28;91442;-41
2022/12/09 08:07:12;;;;;;;;;;;9.60;78.00;;;;;;5038868;28;93201;-41
2022/12/09 08:09:37;;;;;;;;;;;9.60;78.00;;;;;;5039379;28;92157;-41
2022/12/09 08:12:03;;;;;;;;;;;9.60;78.00;;;;;;5038803;28;92980;-41
2022/12/09 08:14:28;;;;;;;;;;;9.60;78.00;;;;;;5038856;28;93123;-41
2022/12/09 08:16:54;;;;;;;;;;;9.60;77.90;;;;;;5039551;28;92187;-41
2022/12/09 08:19:19;;;;;;;;;;;9.70;77.90;;;;;;5039362;28;92355;-41
2022/12/09 08:21:45;;;;;;;;;;;9.70;77.90;;;;;;5038367;28;94657;-41
2022/12/09 08:24:10;;;;;;;;;;;9.60;77.90;;;;;;5039403;28;92115;-41
2022/12/09 08:26:37;;;;;;;;;;;9.70;77.90;;;;;;5041617;27;93801;-41
2022/12/09 08:29:11;;;;;;;;;;;9.70;77.90;;;;;;5039760;28;91378;-41
2022/12/09 08:31:36;;;;;;;;;;;9.70;77.90;;;;;;5039117;27;93074;-41
2022/12/09 08:34:03;;;;;;;;;;;9.60;78.00;;;;;;5040051;28;93013;-41
2022/12/09 08:36:29;;;;;;;;;;;9.70;78.00;;;;;;5041679;28;93139;-41
2022/12/09 08:38:56;;;;;;;;;;;9.70;78.00;;;;;;5042602;28;92561;-41
2022/12/09 08:41:35;;;;;;;;;;;9.70;78.00;;;;;;5042045;28;92506;-41
2022/12/09 08:44:02;;;;;;;;;;;9.60;77.90;;;;;;5042726;28;92084;-41
2022/12/09 08:46:27;;;;;;;;;;;9.70;78.00;;;;;;5042446;28;92445;-41
2022/12/09 08:48:53;;;;;;;;;;;9.60;77.90;;;;;;5044726;28;93521;-41
2022/12/09 08:51:19;;;;;;;;;;;9.70;77.90;;;;;;5042548;27;92350;-41
2022/12/09 08:53:44;;;;;;;;;;;9.70;78.50;;;;;;5042315;28;92428;-41
2022/12/09 08:56:10;;;;;;;;;;;9.70;78.00;;;;;;5042570;28;92531;-41
2022/12/09 08:58:36;;;;;;;;;;;9.70;78.50;;;;;;5042546;27;92483;-41
2022/12/09 09:01:02;;;;;;;;;;;9.70;77.90;;;;;;5041420;28;94009;-41
2022/12/09 09:03:27;;;;;;;;;;;9.70;77.90;;;;;;5041881;28;92203;-41
2022/12/09 09:05:53;;;;;;;;;;;9.70;77.80;;;;;;5042296;28;92561;-41
2022/12/09 09:08:18;;;;;;;;;;;9.70;77.80;;;;;;5041667;28;92034;-41
2022/12/09 09:10:44;;;;;;;;;;;9.70;77.90;;;;;;5045462;28;92282;-41
2022/12/09 09:13:09;;;;;;;;;;;9.70;78.00;;;;;;5041674;28;93054;-41
2022/12/09 09:15:37;;;;;;;;;;;9.70;78.00;;;;;;5042277;28;92149;-41
2022/12/09 09:18:03;;;;;;;;;;;9.70;78.00;;;;;;5042484;27;92747;-41
2022/12/09 09:20:28;;;;;;;;;;;9.70;78.00;;;;;;5041561;28;93256;-41
2022/12/09 09:22:54;;;;;;;;;;;9.70;78.00;;;;;;5042166;28;92181;-41
2022/12/09 09:25:19;;;;;;;;;;;9.70;78.00;;;;;;5041305;28;93911;-41
2022/12/09 09:27:45;;;;;;;;;;;9.70;78.00;;;;;;5041500;28;93214;-41
2022/12/09 09:30:10;;;;;;;;;;;9.80;78.00;;;;;;5045273;28;92316;-41
2022/12/09 09:32:36;;;;;;;;;;;9.70;78.00;;;;;;5041385;28;93095;-41
2022/12/09 09:35:01;;;;;;;;;;;9.70;77.90;;;;;;5041505;28;93201;-41
2022/12/09 09:37:27;;;;;;;;;;;9.80;78.00;;;;;;5041900;27;92335;-41
2022/12/09 09:39:52;;;;;;;;;;;9.80;78.00;;;;;;5041268;28;93090;-41
2022/12/09 09:42:22;;;;;;;;;;;9.80;78.00;;;;;;5042308;28;91282;-41
2022/12/09 09:44:49;;;;;;;;;;;9.80;78.00;;;;;;5040755;27;93202;-41
2022/12/09 09:47:16;;;;;;;;;;;9.80;78.10;;;;;;5041306;28;92458;-41
2022/12/09 09:49:44;;;;;;;;;;;9.80;78.00;;;;;;5041077;28;93022;-41
2022/12/09 09:52:13;;;;;;;;;;;9.80;78.00;;;;;;5044088;27;94535;-41
2022/12/09 09:54:38;;;;;;;;;;;9.80;78.00;;;;;;5041500;28;92760;-41
2022/12/09 09:57:16;;;;;;;;;;;9.80;78.00;;;;;;5041652;28;92417;-41
2022/12/09 09:59:56;;;;;;;;;;;9.80;78.00;;;;;;5040953;28;94486;-41
2022/12/09 10:02:39;;;;;;;;;;;9.80;78.10;;;;;;5041156;28;92134;-41
2022/12/09 10:05:20;;;;;;;;;;;9.80;78.20;;;;;;5041642;28;92265;-41
2022/12/09 10:07:50;;;;;;;;;;;9.80;78.30;;;;;;5041550;28;92323;-41
2022/12/09 10:10:27;;;;;;;;;;;9.80;78.80;;;;;;5041257;28;92415;-41
2022/12/09 10:12:53;;;;;;;;;;;9.80;78.30;;;;;;5041269;27;92322;-40
2022/12/09 10:15:21;;;;;;;;;;;9.80;78.40;;;;;;5043047;28;94043;-41
2022/12/09 10:17:57;;;;;;;;;;;9.80;78.30;;;;;;5041576;27;93274;-41
2022/12/09 10:20:26;;;;;;;;;;;9.80;78.40;;;;;;5040515;28;92998;-41
2022/12/09 10:22:54;;;;;;;;;;;9.80;78.50;;;;;;5040825;28;92001;-41
2022/12/09 10:25:21;;;;;;;;;;;9.80;78.50;;;;;;5041017;28;92408;-41
2022/12/09 10:27:59;;;;;;;;;;;9.80;78.50;;;;;;5040417;28;93026;-41
2022/12/09 10:30:25;;;;;;;;;;;9.80;78.40;;;;;;5040879;28;92138;-41
2022/12/09 10:32:51;;;;;;;;;;;9.80;78.40;;;;;;5041524;28;91598;-41
2022/12/09 10:35:24;;;;;;;;;;;9.80;78.40;;;;;;5040091;28;93262;-41
2022/12/09 10:37:51;;;;;;;;;;;9.90;78.50;;;;;;5043745;28;92125;-41
2022/12/09 10:40:23;;;;;;;;;;;9.90;78.60;;;;;;5039783;28;93602;-41
2022/12/09 10:45:44;;;;;;;;;;;9.90;78.50;;;;;;5039598;28;92273;-41
2022/12/09 10:48:19;;;;;;;;;;;9.90;78.50;;;;;;5039804;28;93175;-41
2022/12/09 10:50:45;;;;;;;;;;;9.90;78.60;;;;;;5040500;28;92364;-41
2022/12/09 10:53:12;;;;;;;;;;;9.90;78.60;;;;;;5040617;28;92480;-41
2022/12/09 10:55:40;;;;;;;;;;;9.90;78.70;;;;;;5039450;27;93412;-41
2022/12/09 10:58:22;;;;;;;;;;;9.90;78.70;;;;;;5040896;28;91345;-41
2022/12/09 11:00:58;;;;;;;;;;;9.90;78.70;;;;;;5043027;27;92118;-41
2022/12/09 11:03:36;;;;;;;;;;;9.90;78.60;;;;;;5040507;28;92124;-40
2022/12/09 11:06:03;;;;;;;;;;;9.90;78.70;;;;;;5039485;27;93039;-41
2022/12/09 11:08:29;;;;;;;;;;;9.90;78.60;;;;;;5039609;28;94298;-41
2022/12/09 11:10:55;;;;;;;;;;;9.90;78.80;;;;;;5040275;28;92164;-41
2022/12/09 11:13:25;;;;;;;;;;;10.00;78.80;;;;;;5040067;28;92339;-41
2022/12/09 11:15:52;;;;;;;;;;;10.00;78.80;;;;;;5039466;28;93185;-41
2022/12/09 11:18:18;;;;;;;;;;;10.00;78.80;;;;;;5040273;28;92220;-41
2022/12/09 11:20:53;;;;;;;;;;;10.00;78.80;;;;;;5040103;27;93805;-41
2022/12/09 11:23:19;;;;;;;;;;;10.00;78.80;;;;;;5043325;28;92239;-41
2022/12/09 11:25:56;;;;;;;;;;;10.00;78.70;;;;;;5040059;28;92108;-41
2022/12/09 11:28:25;;;;;;;;;;;10.00;78.80;;;;;;5039346;28;94454;-41
2022/12/09 11:30:50;;;;;;;;;;;10.00;78.80;;;;;;5039407;28;93080;-41
2022/12/09 11:33:24;;;;;;;;;;;10.00;78.70;;;;;;5040015;28;93360;-41
2022/12/09 11:35:50;;;;;;;;;;;10.00;78.80;;;;;;5039189;28;94576;-41
2022/12/09 11:38:36;;;;;;;;;;;10.00;78.80;;;;;;5039683;28;92225;-41
2022/12/09 11:41:02;;;;;;;;;;;10.00;78.90;;;;;;5039679;27;93872;-40
2022/12/09 11:43:36;;;;;;;;;;;10.00;79.00;;;;;;5042360;28;93012;-41
2022/12/09 11:46:22;;;;;;;;;;;10.00;79.00;;;;;;5039507;28;92611;-41
2022/12/09 11:48:52;;;;;;;;;;;10.00;79.00;;;;;;5039192;28;93561;-41
2022/12/09 11:51:20;;;;;;;;;;;10.00;79.00;;;;;;5039743;28;92175;-41
2022/12/09 11:53:45;;;;;;;;;;;10.00;79.10;;;;;;5039651;27;92496;-41
2022/12/09 11:56:20;;;;;;;;;;;10.00;79.00;;;;;;5038534;28;94133;-41
2022/12/09 11:58:55;;;;;;;;;;;10.00;79.00;;;;;;5039486;28;92350;-41
2022/12/09 12:01:31;;;;;;;;;;;10.00;79.10;;;;;;5039643;27;92373;-41
2022/12/09 12:04:03;;;;;;;;;;;10.00;79.10;;;;;;5038734;28;93053;-40
2022/12/09 12:06:49;;;;;;;;;;;10.10;79.10;;;;;;5042886;28;92149;-41
2022/12/09 12:09:14;;;;;;;;;;;10.10;79.10;;;;;;5037196;28;93125;-41
2022/12/09 12:12:03;;;;;;;;;;;10.10;79.00;;;;;;5039488;28;92313;-41
2022/12/09 12:14:29;;;;;;;;;;;10.10;79.20;;;;;;5033322;28;94047;-41
2022/12/09 12:17:03;;;;;;;;;;;10.10;79.20;;;;;;5038758;28;94234;-41
2022/12/09 12:19:31;;;;;;;;;;;10.10;79.20;;;;;;5039308;28;92136;-41
2022/12/09 12:22:13;;;;;;;;;;;10.10;79.20;;;;;;5038865;28;93056;-41
2022/12/09 12:24:38;;;;;;;;;;;10.10;79.20;;;;;;5038761;28;93317;-41
2022/12/09 12:27:24;;;;;;;;;;;10.10;79.30;;;;;;5039432;28;92131;-41
2022/12/09 12:29:56;;;;;;;;;;;10.10;79.40;;;;;;5041252;28;92577;-41
2022/12/09 12:32:21;;;;;;;;;;;10.10;79.30;;;;;;5039264;28;92198;-41
2022/12/09 12:34:56;;;;;;;;;;;10.10;79.20;;;;;;5038688;28;92123;-41
2022/12/09 12:37:27;;;;;;;;;;;10.10;79.30;;;;;;5038824;28;92356;-41
2022/12/09 12:39:53;;;;;;;;;;;10.10;79.30;;;;;;5039835;28;91410;-41
2022/12/09 12:42:26;;;;;;;;;;;10.10;79.30;;;;;;5039181;28;92093;-41
2022/12/09 12:47:58;;;;;;;;;;;10.10;79.40;;;;;;5038429;28;92978;-41
2022/12/09 12:50:32;;;;;;;;;;;10.10;79.40;;;;;;5039236;28;93325;-41
2022/12/09 12:53:04;;;;;;;;;;;10.10;79.40;;;;;;5041354;28;94667;-41
2022/12/09 12:55:38;;;;;;;;;;;10.20;79.40;;;;;;5038796;27;92221;-41
2022/12/09 12:58:19;;;;;;;;;;;10.10;79.40;;;;;;5038418;28;93054;-41
2022/12/09 13:00:50;;;;;;;;;;;10.20;79.60;;;;;;5038845;28;92249;-41
2022/12/09 13:03:28;;;;;;;;;;;10.20;79.50;;;;;;5038858;27;92234;-41
2022/12/09 13:05:55;;;;;;;;;;;10.10;79.40;;;;;;5038537;28;92423;-40
2022/12/09 13:08:27;;;;;;;;;;;10.20;79.40;;;;;;5038324;28;92152;-40
2022/12/09 13:10:53;;;;;;;;;;;10.20;79.50;;;;;;5038691;27;92313;-41
2022/12/09 13:13:19;;;;;;;;;;;10.20;79.60;;;;;;5037374;28;93881;-41
2022/12/09 13:15:46;;;;;;;;;;;10.20;79.60;;;;;;5041784;28;92169;-40
2022/12/09 13:18:38;;;;;;;;;;;10.20;79.60;;;;;;5038025;28;93069;-41
2022/12/09 13:21:05;;;;;;;;;;;10.20;79.60;;;;;;5039668;28;93277;-41
2022/12/09 13:23:49;;;;;;;;;;;10.20;79.60;;;;;;5041979;27;92580;-41
2022/12/09 13:26:25;;;;;;;;;;;10.20;79.60;;;;;;5041386;27;93150;-40
2022/12/09 13:28:50;;;;;;;;;;;10.20;79.60;;;;;;5041645;28;92007;-41
2022/12/09 13:31:18;;;;;;;;;;;10.20;79.60;;;;;;5042283;27;92220;-41
2022/12/09 13:33:46;;;;;;;;;;;10.20;79.60;;;;;;5040724;28;92915;-41
2022/12/09 13:36:11;;;;;;;;;;;10.20;79.60;;;;;;5042016;28;92265;-41
2022/12/09 13:38:39;;;;;;;;;;;10.20;79.60;;;;;;5043755;27;92891;-41
2022/12/09 13:41:23;;;;;;;;;;;10.20;79.60;;;;;;5041567;28;92263;-41
2022/12/09 13:43:49;;;;;;;;;;;10.20;79.60;;;;;;5041638;27;92300;-41
2022/12/09 13:46:19;;;;;;;;;;;10.20;79.60;;;;;;5040907;28;93017;-41
2022/12/09 13:48:45;;;;;;;;;;;10.20;79.60;;;;;;5041583;28;92058;-41
2022/12/09 13:51:11;;;;;;;;;;;10.20;79.60;;;;;;5041612;28;92433;-41
2022/12/09 13:53:48;;;;;;;;;;;10.20;79.70;;;;;;5039399;28;95970;-41
2022/12/09 13:56:25;;;;;;;;;;;10.30;79.70;;;;;;5041897;28;91706;-41
2022/12/09 13:59:06;;;;;;;;;;;10.20;79.60;;;;;;5043864;27;93087;-41
2022/12/09 14:01:52;;;;;;;;;;;10.30;79.70;;;;;;5039936;28;92139;-41
2022/12/09 14:04:17;;;;;;;;;;;10.30;79.70;;;;;;5040498;27;93750;-41
2022/12/09 14:06:43;;;;;;;;;;;10.30;79.80;;;;;;5040818;28;93204;-41
2022/12/09 14:09:40;;;;;;;;;;;10.30;79.70;;;;;;5041392;28;92160;-41
2022/12/09 14:12:09;;;;;;;;;;;10.30;79.70;;;;;;5017700;27;92370;-41
2022/12/09 14:14:51;;;;;;;;;;;10.30;79.80;;;;;;5040523;28;93054;-41
2022/12/09 14:17:36;;;;;;;;;;;10.30;79.80;;;;;;5040945;28;92121;-41
2022/12/09 14:20:22;;;;;;;;;;;10.30;79.80;;;;;;5033184;28;92603;-41
2022/12/09 14:23:03;;;;;;;;;;;10.30;79.80;;;;;;5043580;28;92918;-41
2022/12/09 14:25:32;;;;;;;;;;;10.30;79.90;;;;;;5041116;28;92016;-41
2022/12/09 14:28:14;;;;;;;;;;;10.30;79.80;;;;;;5040202;28;94759;-41
2022/12/09 14:30:48;;;;;;;;;;;10.30;79.90;;;;;;5039358;27;93055;-41
2022/12/09 14:33:20;;;;;;;;;;;10.30;79.80;;;;;;5040778;27;94640;-41
2022/12/09 14:35:47;;;;;;;;;;;10.30;79.90;;;;;;5039962;28;93398;-41
2022/12/09 14:38:13;;;;;;;;;;;10.30;79.80;;;;;;5040571;28;92134;-41
2022/12/09 14:40:41;;;;;;;;;;;10.30;79.90;;;;;;5040793;28;92641;-41